Time;durP1;ratioP1;P1;durP2;ratioP2;P2;SDS_P1;SDS_P2;PMS_P1;PMS_P2;Temp;Humidity;BMP_temperature;BMP_pressure;BME280_temperature;BME280_humidity;BME280_pressure;Samples;Min_cycle;Max_cycle;Signal;HPM_P1;HPM_P2
2022/04/04 00:01:07;;;;;;;6.93;2.67;;;;;;;;;;5093913;28;20019;-61
2022/04/04 00:03:33;;;;;;;4.88;2.53;;;;;;;;;;5112243;28;20024;-61
2022/04/04 00:05:59;;;;;;;4.63;2.70;;;;;;;;;;5112215;28;20069;-61
2022/04/04 00:08:25;;;;;;;4.85;2.42;;;;;;;;;;5112130;28;20095;-61
2022/04/04 00:10:51;;;;;;;7.15;3.25;;;;;;;;;;5112106;28;20535;-60
2022/04/04 00:13:17;;;;;;;5.25;2.67;;;;;;;;;;5112338;28;20043;-61
2022/04/04 00:15:43;;;;;;;6.25;2.50;;;;;;;;;;5112336;28;20374;-61
2022/04/04 00:18:13;;;;;;;4.20;2.25;;;;;;;;;;5112205;28;20030;-61
2022/04/04 00:20:42;;;;;;;5.45;2.58;;;;;;;;;;5112384;28;20031;-61
2022/04/04 00:23:12;;;;;;;5.18;2.63;;;;;;;;;;5109963;28;20019;-61
2022/04/04 00:25:39;;;;;;;5.45;2.85;;;;;;;;;;5095783;28;20031;-61
2022/04/04 00:28:05;;;;;;;5.13;2.50;;;;;;;;;;5098798;28;20027;-61
2022/04/04 00:30:31;;;;;;;6.90;2.65;;;;;;;;;;5092384;28;20112;-61
2022/04/04 00:32:57;;;;;;;4.28;2.42;;;;;;;;;;5093873;28;20016;-65
2022/04/04 00:35:23;;;;;;;31.33;3.50;;;;;;;;;;5107801;28;20028;-61
2022/04/04 00:37:49;;;;;;;5.05;2.40;;;;;;;;;;5100125;28;20538;-61
2022/04/04 00:40:15;;;;;;;5.55;2.55;;;;;;;;;;5114396;28;20035;-60
2022/04/04 00:42:41;;;;;;;6.63;2.30;;;;;;;;;;5105128;28;20021;-60
2022/04/04 00:45:08;;;;;;;8.63;2.67;;;;;;;;;;5093794;28;20060;-61
2022/04/04 00:47:34;;;;;;;10.30;2.70;;;;;;;;;;5093726;28;20016;-61
2022/04/04 00:50:00;;;;;;;8.27;2.40;;;;;;;;;;5093205;28;20024;-61
2022/04/04 00:52:26;;;;;;;7.22;2.50;;;;;;;;;;5093065;28;20025;-61
2022/04/04 00:54:52;;;;;;;7.00;2.30;;;;;;;;;;5101815;28;20028;-61
2022/04/04 00:57:19;;;;;;;7.22;2.72;;;;;;;;;;5106775;28;20501;-61
2022/04/04 00:59:45;;;;;;;5.35;2.10;;;;;;;;;;5093818;28;20032;-60
2022/04/04 01:02:11;;;;;;;6.72;2.40;;;;;;;;;;5093894;28;20066;-61
2022/04/04 01:04:37;;;;;;;6.25;2.33;;;;;;;;;;5093886;28;20055;-61
2022/04/04 01:07:04;;;;;;;5.32;2.72;;;;;;;;;;5093924;28;20059;-61
2022/04/04 01:09:31;;;;;;;5.20;2.42;;;;;;;;;;5110764;28;20024;-61
2022/04/04 01:12:07;;;;;;;4.65;2.55;;;;;;;;;;5112761;28;20027;-61
2022/04/04 01:14:34;;;;;;;7.78;2.40;;;;;;;;;;5113677;28;20432;-60
2022/04/04 01:17:00;;;;;;;6.20;2.40;;;;;;;;;;5114100;28;20072;-61
2022/04/04 01:19:26;;;;;;;7.18;2.65;;;;;;;;;;5113742;28;20031;-61
2022/04/04 01:21:53;;;;;;;5.28;2.28;;;;;;;;;;5113645;28;20096;-61
2022/04/04 01:24:19;;;;;;;4.72;2.55;;;;;;;;;;5113561;28;20056;-61
2022/04/04 01:26:49;;;;;;;5.18;2.45;;;;;;;;;;5113737;28;20043;-61
2022/04/04 01:29:15;;;;;;;5.78;2.40;;;;;;;;;;5114002;28;20030;-61
2022/04/04 01:31:41;;;;;;;9.05;2.72;;;;;;;;;;5114001;28;20034;-61
2022/04/04 01:34:08;;;;;;;5.32;2.45;;;;;;;;;;5113660;28;20020;-60
2022/04/04 01:36:34;;;;;;;11.02;2.70;;;;;;;;;;5113552;28;20034;-60
2022/04/04 01:39:00;;;;;;;4.88;2.22;;;;;;;;;;5112871;28;20050;-61
2022/04/04 01:41:27;;;;;;;5.70;2.28;;;;;;;;;;5112858;28;20125;-62
2022/04/04 01:43:53;;;;;;;4.97;2.35;;;;;;;;;;5113019;28;20084;-61
2022/04/04 01:46:25;;;;;;;7.40;2.42;;;;;;;;;;5113250;28;20499;-61
2022/04/04 01:48:52;;;;;;;4.43;2.30;;;;;;;;;;5112615;28;20551;-61
2022/04/04 01:51:18;;;;;;;5.00;2.45;;;;;;;;;;5113336;28;20055;-61
2022/04/04 01:53:45;;;;;;;8.32;2.60;;;;;;;;;;5113316;28;20028;-61
2022/04/04 01:56:11;;;;;;;7.50;2.92;;;;;;;;;;5113088;28;20022;-62
2022/04/04 01:58:37;;;;;;;8.55;3.17;;;;;;;;;;5112754;28;20043;-61
2022/04/04 02:01:09;;;;;;;6.32;2.78;;;;;;;;;;5113021;28;20027;-61
2022/04/04 02:03:36;;;;;;;6.25;2.97;;;;;;;;;;5112584;28;20023;-61
2022/04/04 02:06:02;;;;;;;5.07;2.38;;;;;;;;;;5112135;28;20103;-60
2022/04/04 02:08:29;;;;;;;4.82;2.35;;;;;;;;;;5112172;28;20031;-61
2022/04/04 02:10:55;;;;;;;5.85;2.80;;;;;;;;;;5112139;28;20027;-60
2022/04/04 02:13:23;;;;;;;4.25;2.50;;;;;;;;;;5112245;28;20486;-60
2022/04/04 02:15:50;;;;;;;5.20;2.42;;;;;;;;;;5111998;28;20093;-60
2022/04/04 02:18:16;;;;;;;5.18;2.17;;;;;;;;;;5112069;28;20087;-60
2022/04/04 02:20:42;;;;;;;4.88;2.25;;;;;;;;;;5112195;28;20501;-60
2022/04/04 02:23:08;;;;;;;5.28;2.40;;;;;;;;;;5112336;28;20099;-60
2022/04/04 02:25:34;;;;;;;4.68;2.22;;;;;;;;;;5112506;28;20031;-60
2022/04/04 02:28:00;;;;;;;4.45;2.35;;;;;;;;;;5112792;28;20104;-60
2022/04/04 02:30:26;;;;;;;6.22;2.90;;;;;;;;;;5112787;28;20016;-60
2022/04/04 02:32:53;;;;;;;5.00;2.65;;;;;;;;;;5112449;28;20372;-60
2022/04/04 02:35:19;;;;;;;4.07;2.20;;;;;;;;;;5112470;28;20019;-61
2022/04/04 02:37:45;;;;;;;4.32;2.50;;;;;;;;;;5112171;28;20110;-60
2022/04/04 02:40:11;;;;;;;4.75;2.42;;;;;;;;;;5094198;28;20367;-60
2022/04/04 02:42:37;;;;;;;4.22;2.33;;;;;;;;;;5112392;28;20030;-60
2022/04/04 02:45:04;;;;;;;5.97;2.50;;;;;;;;;;5093905;28;20035;-60
2022/04/04 02:47:30;;;;;;;5.43;2.53;;;;;;;;;;5112302;28;20458;-60
2022/04/04 02:49:56;;;;;;;5.43;2.45;;;;;;;;;;5099779;28;20372;-60
2022/04/04 02:52:22;;;;;;;4.40;2.33;;;;;;;;;;5092015;28;20020;-60
2022/04/04 02:54:48;;;;;;;3.97;2.05;;;;;;;;;;5091903;28;20055;-61
2022/04/04 02:57:16;;;;;;;4.55;2.05;;;;;;;;;;5092005;28;20539;-60
2022/04/04 02:59:42;;;;;;;7.10;2.50;;;;;;;;;;5091609;28;20028;-60
2022/04/04 03:02:09;;;;;;;4.80;2.47;;;;;;;;;;5091745;28;20035;-59
2022/04/04 03:04:36;;;;;;;4.72;2.47;;;;;;;;;;5091880;28;20031;-61
2022/04/04 03:07:02;;;;;;;6.57;2.53;;;;;;;;;;5091649;28;20103;-60
2022/04/04 03:09:28;;;;;;;5.65;2.70;;;;;;;;;;5091631;28;20155;-61
2022/04/04 03:11:54;;;;;;;5.22;2.45;;;;;;;;;;5091764;28;20026;-61
2022/04/04 03:14:20;;;;;;;5.40;2.70;;;;;;;;;;5091710;28;20105;-61
2022/04/04 03:16:46;;;;;;;4.97;2.97;;;;;;;;;;5091732;28;20024;-61
2022/04/04 03:19:12;;;;;;;4.40;2.25;;;;;;;;;;5091560;28;20173;-61
2022/04/04 03:21:40;;;;;;;6.25;2.45;;;;;;;;;;5091597;28;20020;-60
2022/04/04 03:24:06;;;;;;;6.13;2.72;;;;;;;;;;5091332;28;20012;-61
2022/04/04 03:29:17;;;;;;;8.38;3.00;;;;;;;;;;5091611;28;20039;-61
2022/04/04 03:31:43;;;;;;;4.88;2.42;;;;;;;;;;5091760;28;20024;-61
2022/04/04 03:34:09;;;;;;;4.50;2.30;;;;;;;;;;5091297;28;20024;-60
2022/04/04 03:36:35;;;;;;;6.63;2.80;;;;;;;;;;5091432;28;20467;-60
2022/04/04 03:39:01;;;;;;;4.57;2.15;;;;;;;;;;5091101;28;20044;-60
2022/04/04 03:41:27;;;;;;;4.47;2.00;;;;;;;;;;5091506;28;20028;-60
2022/04/04 03:43:53;;;;;;;5.85;2.83;;;;;;;;;;5091431;28;20056;-61
2022/04/04 03:46:19;;;;;;;6.72;2.53;;;;;;;;;;5091221;28;20062;-61
2022/04/04 03:48:45;;;;;;;5.05;2.25;;;;;;;;;;5091092;28;20052;-61
2022/04/04 03:51:12;;;;;;;8.35;2.63;;;;;;;;;;5090996;28;20024;-61
2022/04/04 03:53:39;;;;;;;4.50;2.00;;;;;;;;;;5090989;28;20024;-60
2022/04/04 03:56:05;;;;;;;5.25;2.30;;;;;;;;;;5073098;28;20380;-61
2022/04/04 03:58:31;;;;;;;5.35;2.70;;;;;;;;;;5091011;28;20043;-60
2022/04/04 04:00:58;;;;;;;4.88;2.30;;;;;;;;;;5090992;28;20514;-60
2022/04/04 04:03:24;;;;;;;5.43;2.50;;;;;;;;;;5090939;28;20028;-60
2022/04/04 04:05:50;;;;;;;5.38;2.50;;;;;;;;;;5090993;28;20074;-61
2022/04/04 04:08:16;;;;;;;5.82;3.03;;;;;;;;;;5090392;28;20044;-60
2022/04/04 04:10:42;;;;;;;5.78;2.33;;;;;;;;;;5091289;28;20024;-61
2022/04/04 04:13:08;;;;;;;5.57;2.63;;;;;;;;;;5093952;28;20375;-61
2022/04/04 04:15:34;;;;;;;5.05;2.60;;;;;;;;;;5097385;28;20032;-60
2022/04/04 04:18:00;;;;;;;6.70;2.90;;;;;;;;;;5114627;28;20485;-60
2022/04/04 04:20:31;;;;;;;5.40;2.53;;;;;;;;;;5114560;28;20042;-61
2022/04/04 04:22:58;;;;;;;5.85;2.15;;;;;;;;;;5114597;28;20038;-61
2022/04/04 04:25:27;;;;;;;4.82;2.50;;;;;;;;;;5114458;28;20023;-61
2022/04/04 04:27:54;;;;;;;5.50;2.65;;;;;;;;;;5114512;28;20047;-61
2022/04/04 04:30:20;;;;;;;4.47;2.30;;;;;;;;;;5114237;28;20412;-61
2022/04/04 04:32:48;;;;;;;5.40;2.55;;;;;;;;;;5114303;28;20031;-60
2022/04/04 04:35:15;;;;;;;5.38;2.30;;;;;;;;;;5114314;28;20036;-60
2022/04/04 04:37:42;;;;;;;4.78;2.75;;;;;;;;;;5114188;28;20431;-61
2022/04/04 04:40:08;;;;;;;5.25;2.42;;;;;;;;;;5114201;28;20560;-61
2022/04/04 04:42:35;;;;;;;4.55;2.42;;;;;;;;;;5114179;28;20159;-61
2022/04/04 04:45:03;;;;;;;5.05;2.22;;;;;;;;;;5114184;28;20023;-60
2022/04/04 04:47:29;;;;;;;4.68;2.20;;;;;;;;;;5113954;28;20019;-61
2022/04/04 04:49:55;;;;;;;4.32;2.10;;;;;;;;;;5114005;28;20031;-61
2022/04/04 04:52:21;;;;;;;4.90;2.58;;;;;;;;;;5114553;28;20099;-61
2022/04/04 04:54:48;;;;;;;8.55;2.88;;;;;;;;;;5114548;28;20124;-61
2022/04/04 04:57:14;;;;;;;4.57;2.33;;;;;;;;;;5114552;28;20024;-61
2022/04/04 04:59:40;;;;;;;5.32;2.63;;;;;;;;;;5114445;28;20046;-62
2022/04/04 05:02:06;;;;;;;5.05;2.55;;;;;;;;;;5114307;28;20027;-61
2022/04/04 05:04:32;;;;;;;4.70;2.30;;;;;;;;;;5113932;28;20023;-61
2022/04/04 05:06:58;;;;;;;4.40;2.60;;;;;;;;;;5114186;28;20023;-61
2022/04/04 05:09:24;;;;;;;7.78;2.65;;;;;;;;;;5114181;28;20020;-61
2022/04/04 05:11:50;;;;;;;5.47;2.55;;;;;;;;;;5114235;28;20023;-62
2022/04/04 05:14:16;;;;;;;6.85;2.78;;;;;;;;;;5113865;28;20497;-61
2022/04/04 05:16:43;;;;;;;5.65;2.78;;;;;;;;;;5113818;28;20024;-61
2022/04/04 05:19:10;;;;;;;5.40;2.75;;;;;;;;;;5113538;28;20046;-61
2022/04/04 05:21:36;;;;;;;5.63;2.30;;;;;;;;;;5113188;28;20049;-61
2022/04/04 05:24:02;;;;;;;5.95;2.65;;;;;;;;;;5113587;28;20430;-61
2022/04/04 05:26:29;;;;;;;4.45;2.20;;;;;;;;;;5113306;28;20103;-61
2022/04/04 05:28:56;;;;;;;4.82;2.28;;;;;;;;;;5113263;28;20073;-61
2022/04/04 05:31:22;;;;;;;5.80;2.67;;;;;;;;;;5108224;28;20775;-61
2022/04/04 05:33:48;;;;;;;5.32;2.70;;;;;;;;;;5107646;28;20031;-61
2022/04/04 05:36:14;;;;;;;5.68;2.58;;;;;;;;;;5114194;28;20055;-60
2022/04/04 05:38:40;;;;;;;5.00;2.25;;;;;;;;;;5114111;28;20043;-62
2022/04/04 05:41:06;;;;;;;12.88;3.00;;;;;;;;;;5114251;28;20394;-61
2022/04/04 05:43:32;;;;;;;5.20;2.00;;;;;;;;;;5114242;28;20375;-61
2022/04/04 05:45:58;;;;;;;4.15;2.08;;;;;;;;;;5114216;28;20023;-61
2022/04/04 05:48:30;;;;;;;5.97;2.38;;;;;;;;;;5114148;28;20019;-61
2022/04/04 05:50:56;;;;;;;6.07;2.37;;;;;;;;;;5114230;28;20485;-61
2022/04/04 05:53:22;;;;;;;6.47;2.38;;;;;;;;;;5114262;28;20026;-61
2022/04/04 05:55:48;;;;;;;5.13;2.10;;;;;;;;;;5114020;28;20440;-62
2022/04/04 05:58:15;;;;;;;5.38;2.60;;;;;;;;;;5114058;28;20111;-62
2022/04/04 06:00:41;;;;;;;5.32;2.45;;;;;;;;;;5113845;28;20050;-62
2022/04/04 06:03:07;;;;;;;7.25;2.67;;;;;;;;;;5113849;28;20024;-62
2022/04/04 06:05:34;;;;;;;7.90;2.65;;;;;;;;;;5113940;28;20022;-62
2022/04/04 06:08:01;;;;;;;7.82;2.80;;;;;;;;;;5114089;28;20445;-62
2022/04/04 06:10:27;;;;;;;7.30;2.53;;;;;;;;;;5113876;28;20024;-61
2022/04/04 06:12:53;;;;;;;6.18;2.63;;;;;;;;;;5113902;28;20459;-62
2022/04/04 06:15:20;;;;;;;8.02;2.78;;;;;;;;;;5111451;28;20455;-62
2022/04/04 06:17:47;;;;;;;10.60;2.88;;;;;;;;;;5113683;28;20061;-62
2022/04/04 06:20:13;;;;;;;6.47;2.75;;;;;;;;;;5113397;28;20058;-62
2022/04/04 06:22:40;;;;;;;5.50;2.92;;;;;;;;;;5113580;28;20024;-62
2022/04/04 06:25:10;;;;;;;7.35;2.22;;;;;;;;;;5095605;28;20024;-61
2022/04/04 06:27:37;;;;;;;4.97;2.67;;;;;;;;;;5093324;28;20435;-62
2022/04/04 06:30:06;;;;;;;5.78;2.50;;;;;;;;;;5093199;28;20027;-62
2022/04/04 06:32:33;;;;;;;5.88;2.72;;;;;;;;;;5092830;28;20020;-61
2022/04/04 06:34:59;;;;;;;3.35;1.98;;;;;;;;;;5092538;28;20028;-62
2022/04/04 06:37:25;;;;;;;11.20;2.65;;;;;;;;;;5093186;28;20020;-62
2022/04/04 06:39:52;;;;;;;5.20;2.45;;;;;;;;;;5092707;28;20048;-62
2022/04/04 06:42:19;;;;;;;6.45;2.75;;;;;;;;;;5093246;28;20078;-62
2022/04/04 06:44:45;;;;;;;5.63;2.47;;;;;;;;;;5093084;28;20043;-62
2022/04/04 06:47:11;;;;;;;5.38;2.50;;;;;;;;;;5092804;28;20101;-62
2022/04/04 06:49:37;;;;;;;5.75;2.97;;;;;;;;;;5092895;28;20095;-62
2022/04/04 06:52:04;;;;;;;6.50;2.55;;;;;;;;;;5074457;28;20028;-62
2022/04/04 06:54:30;;;;;;;4.60;2.10;;;;;;;;;;5092571;28;20016;-62
2022/04/04 06:56:56;;;;;;;5.25;2.45;;;;;;;;;;5092793;28;20033;-62
2022/04/04 06:59:22;;;;;;;6.00;2.20;;;;;;;;;;5092600;28;20032;-62
2022/04/04 07:01:50;;;;;;;8.15;2.97;;;;;;;;;;5092499;28;20031;-62
2022/04/04 07:04:16;;;;;;;7.07;2.13;;;;;;;;;;5092525;28;20487;-61
2022/04/04 07:06:42;;;;;;;4.32;2.30;;;;;;;;;;5092544;28;20024;-62
2022/04/04 07:09:09;;;;;;;5.68;2.60;;;;;;;;;;5092361;28;20035;-62
2022/04/04 07:11:35;;;;;;;6.45;2.40;;;;;;;;;;5092573;28;20507;-63
2022/04/04 07:14:02;;;;;;;3.83;1.88;;;;;;;;;;5092445;28;20034;-62
2022/04/04 07:16:29;;;;;;;4.47;2.00;;;;;;;;;;5092367;28;20016;-62
2022/04/04 07:18:55;;;;;;;4.50;2.03;;;;;;;;;;5092113;28;20040;-62
2022/04/04 07:21:22;;;;;;;5.55;1.92;;;;;;;;;;5092084;28;20027;-62
2022/04/04 07:23:49;;;;;;;4.50;1.95;;;;;;;;;;5091935;28;20024;-61
2022/04/04 07:26:19;;;;;;;5.72;1.90;;;;;;;;;;5091751;28;20020;-62
2022/04/04 07:28:46;;;;;;;9.27;2.00;;;;;;;;;;5092284;28;20458;-62
2022/04/04 07:31:13;;;;;;;7.55;2.22;;;;;;;;;;5092312;28;20024;-62
2022/04/04 07:33:39;;;;;;;4.05;2.00;;;;;;;;;;5092109;28;20024;-62
2022/04/04 07:36:05;;;;;;;5.72;2.13;;;;;;;;;;5092058;28;20020;-62
2022/04/04 07:38:31;;;;;;;4.82;2.00;;;;;;;;;;5091490;28;20060;-62
2022/04/04 07:40:57;;;;;;;4.30;1.70;;;;;;;;;;5091461;28;20039;-62
2022/04/04 07:43:23;;;;;;;3.22;1.50;;;;;;;;;;5091705;28;20028;-62
2022/04/04 07:45:50;;;;;;;2.80;1.58;;;;;;;;;;5093258;28;20117;-62
2022/04/04 07:48:16;;;;;;;4.20;1.83;;;;;;;;;;5096133;28;20125;-62
2022/04/04 07:50:44;;;;;;;6.45;1.73;;;;;;;;;;5095948;28;20091;-63
2022/04/04 07:53:10;;;;;;;4.20;1.67;;;;;;;;;;5096091;28;20020;-63
2022/04/04 07:55:36;;;;;;;6.15;1.60;;;;;;;;;;5095913;28;20009;-63
2022/04/04 07:58:03;;;;;;;4.97;1.70;;;;;;;;;;5096046;28;20062;-63
2022/04/04 08:00:29;;;;;;;4.60;1.85;;;;;;;;;;5096090;28;20099;-63
2022/04/04 08:02:55;;;;;;;3.45;1.55;;;;;;;;;;5095966;28;20395;-63
2022/04/04 08:05:23;;;;;;;9.50;1.80;;;;;;;;;;5096128;28;20447;-63
2022/04/04 08:07:51;;;;;;;8.55;2.00;;;;;;;;;;5095990;28;20491;-62
2022/04/04 08:10:17;;;;;;;7.38;1.70;;;;;;;;;;5096142;28;20012;-60
2022/04/04 08:12:44;;;;;;;4.65;2.05;;;;;;;;;;5095942;28;20024;-62
2022/04/04 08:15:10;;;;;;;13.95;2.10;;;;;;;;;;5099143;28;20016;-60
2022/04/04 08:17:36;;;;;;;13.70;2.03;;;;;;;;;;5104730;28;20072;-59
2022/04/04 08:20:03;;;;;;;10.10;2.25;;;;;;;;;;5116067;28;20023;-60
2022/04/04 08:22:29;;;;;;;5.25;2.00;;;;;;;;;;5099080;28;20032;-60
2022/04/04 08:24:55;;;;;;;10.85;2.38;;;;;;;;;;5095305;28;20372;-60
2022/04/04 08:27:24;;;;;;;8.00;2.22;;;;;;;;;;5095344;28;20024;-60
2022/04/04 08:29:52;;;;;;;5.03;1.83;;;;;;;;;;5095314;28;20024;-60
2022/04/04 08:32:18;;;;;;;4.03;1.50;;;;;;;;;;5095203;28;20024;-62
2022/04/04 08:34:44;;;;;;;6.00;1.58;;;;;;;;;;5112043;28;20047;-60
2022/04/04 08:37:10;;;;;;;3.80;1.38;;;;;;;;;;5115614;28;20056;-60
2022/04/04 08:39:36;;;;;;;4.93;1.40;;;;;;;;;;5115189;28;20131;-60
2022/04/04 08:42:03;;;;;;;3.25;1.48;;;;;;;;;;5115620;28;20040;-60
2022/04/04 08:44:29;;;;;;;4.10;1.40;;;;;;;;;;5115315;28;20062;-60
2022/04/04 08:46:55;;;;;;;8.60;1.70;;;;;;;;;;5115403;28;20047;-60
2022/04/04 08:49:21;;;;;;;2.95;1.33;;;;;;;;;;5115449;28;20032;-60
2022/04/04 08:51:51;;;;;;;6.07;1.95;;;;;;;;;;5115262;28;20031;-59
2022/04/04 08:54:18;;;;;;;3.30;1.45;;;;;;;;;;5115063;28;20099;-60
2022/04/04 08:56:44;;;;;;;4.45;1.63;;;;;;;;;;5114418;28;20016;-60
2022/04/04 08:59:10;;;;;;;6.63;1.77;;;;;;;;;;5115034;28;20036;-60
2022/04/04 09:01:36;;;;;;;9.20;1.65;;;;;;;;;;5096968;28;20020;-61
2022/04/04 09:04:02;;;;;;;6.00;1.45;;;;;;;;;;5094540;28;20028;-60
2022/04/04 09:06:28;;;;;;;3.95;1.45;;;;;;;;;;5094671;28;20532;-61
2022/04/04 09:08:56;;;;;;;4.82;1.58;;;;;;;;;;5094419;28;20032;-61
2022/04/04 09:11:22;;;;;;;3.72;1.58;;;;;;;;;;5094486;28;20017;-61
2022/04/04 09:14:06;;;;;;;3.70;1.50;;;;;;;;;;5094213;28;20072;-60
2022/04/04 09:16:32;;;;;;;4.82;1.48;;;;;;;;;;5094502;28;20024;-61
2022/04/04 09:18:58;;;;;;;9.75;1.63;;;;;;;;;;5094340;28;20039;-60
2022/04/04 09:21:24;;;;;;;5.47;1.52;;;;;;;;;;5094213;28;20020;-60
2022/04/04 09:23:55;;;;;;;4.00;1.60;;;;;;;;;;5094490;28;20020;-59
2022/04/04 09:26:36;;;;;;;3.20;1.45;;;;;;;;;;5093713;28;20019;-61
2022/04/04 09:29:06;;;;;;;3.53;1.70;;;;;;;;;;5093765;28;20027;-61
2022/04/04 09:31:33;;;;;;;3.65;1.67;;;;;;;;;;5094283;28;20020;-62
2022/04/04 09:34:00;;;;;;;3.60;1.65;;;;;;;;;;5094276;28;20073;-62
2022/04/04 09:36:26;;;;;;;3.17;1.50;;;;;;;;;;5093797;28;20023;-61
2022/04/04 09:39:03;;;;;;;2.85;1.35;;;;;;;;;;5093857;28;20067;-61
2022/04/04 09:41:30;;;;;;;4.45;1.50;;;;;;;;;;5094156;28;20019;-61
2022/04/04 09:43:58;;;;;;;3.75;1.60;;;;;;;;;;5098082;28;20020;-60
2022/04/04 09:46:24;;;;;;;4.78;1.55;;;;;;;;;;5114182;28;20058;-60
2022/04/04 09:49:07;;;;;;;3.72;1.52;;;;;;;;;;5112870;28;20104;-60
2022/04/04 09:51:37;;;;;;;5.53;1.70;;;;;;;;;;5100928;28;20032;-60
2022/04/04 09:54:04;;;;;;;7.53;1.95;;;;;;;;;;5093492;28;20661;-60
2022/04/04 09:56:30;;;;;;;5.40;1.73;;;;;;;;;;5093529;28;20052;-61
2022/04/04 09:58:59;;;;;;;6.43;1.70;;;;;;;;;;5093295;28;20024;-61
2022/04/04 10:01:25;;;;;;;4.68;1.80;;;;;;;;;;5093420;28;20066;-60
2022/04/04 10:03:52;;;;;;;5.32;1.90;;;;;;;;;;5093331;28;20020;-61
2022/04/04 10:06:19;;;;;;;5.32;1.58;;;;;;;;;;5093452;28;20024;-61
2022/04/04 10:08:46;;;;;;;5.30;1.67;;;;;;;;;;5092747;28;20012;-60
2022/04/04 10:11:13;;;;;;;5.63;1.50;;;;;;;;;;5093439;28;20048;-60
2022/04/04 10:13:39;;;;;;;4.05;1.40;;;;;;;;;;5093432;28;20540;-60
2022/04/04 10:16:06;;;;;;;4.20;1.83;;;;;;;;;;5093243;28;20021;-60
2022/04/04 10:18:32;;;;;;;6.07;2.08;;;;;;;;;;5093365;28;20027;-61
2022/04/04 10:20:59;;;;;;;6.07;1.80;;;;;;;;;;5093345;28;20024;-60
2022/04/04 10:23:26;;;;;;;3.67;1.58;;;;;;;;;;5093164;28;20016;-60
2022/04/04 10:25:52;;;;;;;3.20;1.50;;;;;;;;;;5093036;28;20103;-61
2022/04/04 10:28:35;;;;;;;4.70;1.80;;;;;;;;;;5092832;28;20016;-61
2022/04/04 10:31:10;;;;;;;4.70;1.70;;;;;;;;;;5093087;28;20122;-60
2022/04/04 10:33:36;;;;;;;3.85;1.98;;;;;;;;;;5092891;28;20095;-60
2022/04/04 10:36:06;;;;;;;4.28;1.70;;;;;;;;;;5092776;28;20145;-60
2022/04/04 10:38:37;;;;;;;6.93;1.80;;;;;;;;;;5092499;28;20052;-60
2022/04/04 10:41:06;;;;;;;3.80;1.92;;;;;;;;;;5092846;28;20105;-61
2022/04/04 10:43:33;;;;;;;3.08;1.52;;;;;;;;;;5092477;28;20012;-61
2022/04/04 10:46:02;;;;;;;3.20;1.42;;;;;;;;;;5092708;28;20047;-60
2022/04/04 10:48:29;;;;;;;4.85;1.48;;;;;;;;;;5092642;28;20018;-61
2022/04/04 10:51:01;;;;;;;4.15;1.60;;;;;;;;;;5092617;28;20024;-60
2022/04/04 10:53:45;;;;;;;3.07;1.33;;;;;;;;;;5092584;28;20016;-60
2022/04/04 10:56:17;;;;;;;2.67;1.23;;;;;;;;;;5092523;28;20047;-61
2022/04/04 10:58:43;;;;;;;4.05;1.63;;;;;;;;;;5092634;28;20651;-61
2022/04/04 11:01:17;;;;;;;2.20;1.00;;;;;;;;;;5105764;28;20498;-61
2022/04/04 11:03:56;;;;;;;3.50;1.42;;;;;;;;;;5113113;28;20011;-61
2022/04/04 11:09:31;;;;;;;3.50;1.65;;;;;;;;;;5112748;28;20027;-61
2022/04/04 11:12:01;;;;;;;3.22;1.55;;;;;;;;;;5112485;28;20072;-61
2022/04/04 11:14:31;;;;;;;3.90;1.38;;;;;;;;;;5112493;28;20053;-61
2022/04/04 11:17:06;;;;;;;3.60;1.50;;;;;;;;;;5112472;28;20038;-62
2022/04/04 11:19:47;;;;;;;4.00;1.50;;;;;;;;;;5112428;28;20527;-61
2022/04/04 11:22:15;;;;;;;3.78;1.48;;;;;;;;;;5112584;28;20474;-61
2022/04/04 11:24:41;;;;;;;3.55;1.30;;;;;;;;;;5112510;28;20035;-62
2022/04/04 11:27:07;;;;;;;2.92;1.30;;;;;;;;;;5112553;28;20015;-62
2022/04/04 11:29:36;;;;;;;2.78;1.10;;;;;;;;;;5094346;28;20058;-61
2022/04/04 11:32:02;;;;;;;2.50;1.10;;;;;;;;;;5112393;28;20133;-61
2022/04/04 11:34:33;;;;;;;4.05;1.40;;;;;;;;;;5112397;28;20095;-62
2022/04/04 11:37:00;;;;;;;2.95;1.30;;;;;;;;;;5112310;28;20031;-61
2022/04/04 11:39:26;;;;;;;3.53;1.20;;;;;;;;;;5112051;28;20075;-62
2022/04/04 11:41:53;;;;;;;3.50;1.33;;;;;;;;;;5112349;28;20022;-62
2022/04/04 11:44:32;;;;;;;3.25;1.38;;;;;;;;;;5112188;28;20023;-61
2022/04/04 11:47:05;;;;;;;3.08;1.23;;;;;;;;;;5112454;28;20020;-62
2022/04/04 11:49:38;;;;;;;3.20;1.30;;;;;;;;;;5112154;28;20042;-62
2022/04/04 11:52:06;;;;;;;3.30;1.40;;;;;;;;;;5112438;28;20077;-62
2022/04/04 11:54:50;;;;;;;2.95;1.27;;;;;;;;;;5112191;28;20470;-61
2022/04/04 11:57:17;;;;;;;2.35;1.15;;;;;;;;;;5112191;28;20492;-61
2022/04/04 11:59:44;;;;;;;3.10;1.30;;;;;;;;;;5112047;28;20114;-62
2022/04/04 12:02:11;;;;;;;2.90;1.45;;;;;;;;;;5112018;28;20383;-61
2022/04/04 12:04:38;;;;;;;2.75;1.27;;;;;;;;;;5111811;28;20027;-60
2022/04/04 12:07:05;;;;;;;7.22;1.40;;;;;;;;;;5111695;28;20024;-61
2022/04/04 12:09:31;;;;;;;4.22;1.60;;;;;;;;;;5112165;28;20420;-62
2022/04/04 12:12:02;;;;;;;2.08;1.10;;;;;;;;;;5111725;28;20028;-62
2022/04/04 12:14:36;;;;;;;3.72;1.35;;;;;;;;;;5111785;28;20104;-62
2022/04/04 12:17:02;;;;;;;4.95;1.50;;;;;;;;;;5111583;28;20016;-61
2022/04/04 12:19:28;;;;;;;3.03;1.27;;;;;;;;;;5111557;28;20032;-62
2022/04/04 12:21:55;;;;;;;5.93;1.65;;;;;;;;;;5111693;28;20102;-61
2022/04/04 12:27:12;;;;;;;4.50;1.45;;;;;;;;;;5112208;28;20524;-60
2022/04/04 12:29:45;;;;;;;3.20;1.30;;;;;;;;;;5112144;28;20278;-59
2022/04/04 12:32:18;;;;;;;5.30;1.50;;;;;;;;;;5113472;28;20081;-60
2022/04/04 12:35:00;;;;;;;2.97;1.33;;;;;;;;;;5115110;28;20011;-60
2022/04/04 12:37:40;;;;;;;3.50;1.27;;;;;;;;;;5114983;28;20073;-60
2022/04/04 12:40:15;;;;;;;3.85;1.48;;;;;;;;;;5114991;28;20074;-61
2022/04/04 12:42:42;;;;;;;5.15;1.30;;;;;;;;;;5115233;28;20454;-60
2022/04/04 12:45:08;;;;;;;4.40;1.40;;;;;;;;;;5115430;28;20025;-59
2022/04/04 12:47:34;;;;;;;3.13;1.35;;;;;;;;;;5115762;28;20080;-62
2022/04/04 12:50:13;;;;;;;3.55;1.40;;;;;;;;;;5107096;28;20541;-61
2022/04/04 12:52:56;;;;;;;3.45;1.48;;;;;;;;;;5094507;28;20413;-61
2022/04/04 12:55:22;;;;;;;3.70;1.63;;;;;;;;;;5106093;28;20038;-61
2022/04/04 12:57:48;;;;;;;3.70;1.60;;;;;;;;;;5103561;28;20047;-61
2022/04/04 13:00:38;;;;;;;2.53;1.13;;;;;;;;;;5094480;28;20032;-60
2022/04/04 13:03:23;;;;;;;3.58;1.27;;;;;;;;;;5094986;28;20035;-61
2022/04/04 13:05:57;;;;;;;2.75;1.38;;;;;;;;;;5094993;28;20046;-60
2022/04/04 13:08:27;;;;;;;3.13;1.52;;;;;;;;;;5094700;28;20024;-60
2022/04/04 13:11:02;;;;;;;3.42;1.23;;;;;;;;;;5094634;28;20617;-60
2022/04/04 13:13:28;;;;;;;4.70;1.38;;;;;;;;;;5094180;28;20028;-61
2022/04/04 13:15:54;;;;;;;3.28;1.50;;;;;;;;;;5093978;28;20028;-60
2022/04/04 13:18:20;;;;;;;3.72;1.33;;;;;;;;;;5094209;28;20483;-60
2022/04/04 13:20:46;;;;;;;2.75;1.30;;;;;;;;;;5094374;28;20455;-61
2022/04/04 13:23:12;;;;;;;3.45;1.40;;;;;;;;;;5094219;28;20097;-60
2022/04/04 13:25:39;;;;;;;3.88;1.70;;;;;;;;;;5094299;28;20095;-60
2022/04/04 13:28:10;;;;;;;2.80;1.25;;;;;;;;;;5094247;28;20395;-60
2022/04/04 13:30:37;;;;;;;3.40;1.40;;;;;;;;;;5094139;28;20027;-60
2022/04/04 13:33:03;;;;;;;2.53;1.10;;;;;;;;;;5094108;28;20024;-60
2022/04/04 13:35:29;;;;;;;4.10;1.50;;;;;;;;;;5093803;28;20108;-61
2022/04/04 13:37:55;;;;;;;2.55;1.23;;;;;;;;;;5094115;28;20034;-61
2022/04/04 13:40:22;;;;;;;3.80;1.30;;;;;;;;;;5093848;28;20048;-61
2022/04/04 13:42:48;;;;;;;2.72;1.42;;;;;;;;;;5093855;28;20483;-61
2022/04/04 13:45:14;;;;;;;3.30;1.40;;;;;;;;;;5093923;28;20028;-61
2022/04/04 13:47:40;;;;;;;4.75;1.70;;;;;;;;;;5093654;28;20024;-61
2022/04/04 13:50:06;;;;;;;3.58;1.60;;;;;;;;;;5093091;28;20016;-61
2022/04/04 13:52:32;;;;;;;3.70;1.50;;;;;;;;;;5093227;28;20756;-61
2022/04/04 13:54:58;;;;;;;3.70;1.63;;;;;;;;;;5093256;28;20101;-61
2022/04/04 13:57:24;;;;;;;3.70;1.45;;;;;;;;;;5108446;28;20031;-61
2022/04/04 13:59:50;;;;;;;2.83;1.23;;;;;;;;;;5114010;28;20039;-61
2022/04/04 14:02:17;;;;;;;3.63;1.55;;;;;;;;;;5113850;28;20064;-60
2022/04/04 14:04:43;;;;;;;3.25;1.20;;;;;;;;;;5113708;28;20041;-61
2022/04/04 14:07:10;;;;;;;3.35;1.45;;;;;;;;;;5114133;28;20430;-61
2022/04/04 14:09:37;;;;;;;3.00;1.33;;;;;;;;;;5114100;28;20054;-60
2022/04/04 14:12:03;;;;;;;3.33;1.25;;;;;;;;;;5113383;28;20023;-61
2022/04/04 14:14:30;;;;;;;2.67;1.30;;;;;;;;;;5113174;28;20058;-61
2022/04/04 14:16:57;;;;;;;3.58;1.17;;;;;;;;;;5113050;28;20047;-61
2022/04/04 14:19:24;;;;;;;3.00;1.45;;;;;;;;;;5113782;28;20031;-60
2022/04/04 14:21:50;;;;;;;3.92;1.80;;;;;;;;;;5113404;28;20047;-60
2022/04/04 14:24:17;;;;;;;5.53;1.50;;;;;;;;;;5113138;28;20023;-60
2022/04/04 14:26:44;;;;;;;2.47;1.30;;;;;;;;;;5112996;28;20077;-60
2022/04/04 14:29:10;;;;;;;5.05;1.50;;;;;;;;;;5113112;28;20024;-60
2022/04/04 14:31:36;;;;;;;2.80;1.23;;;;;;;;;;5113128;28;20015;-60
2022/04/04 14:34:03;;;;;;;4.03;1.42;;;;;;;;;;5112713;28;20034;-60
2022/04/04 14:36:29;;;;;;;4.45;1.30;;;;;;;;;;5112858;28;20028;-60
2022/04/04 14:38:55;;;;;;;3.00;1.35;;;;;;;;;;5112747;28;20126;-60
2022/04/04 14:41:22;;;;;;;3.78;1.92;;;;;;;;;;5112673;28;20475;-61
2022/04/04 14:43:49;;;;;;;3.80;1.67;;;;;;;;;;5112618;28;20031;-61
2022/04/04 14:46:16;;;;;;;4.35;1.42;;;;;;;;;;5112623;28;20020;-61
2022/04/04 14:48:44;;;;;;;3.88;1.75;;;;;;;;;;5112851;28;20052;-60
2022/04/04 14:51:13;;;;;;;4.10;1.58;;;;;;;;;;5112571;28;20042;-60
2022/04/04 14:53:40;;;;;;;2.95;1.50;;;;;;;;;;5112345;28;20023;-60